sensor_id;sensor_type;location;lat;lon;timestamp;temperature;humidity
78325;DHT22;67584;51.400;6.692;2023-07-31T00:02:06;16.10;92.20
78325;DHT22;67584;51.400;6.692;2023-07-31T00:04:31;16.10;92.20
78325;DHT22;67584;51.400;6.692;2023-07-31T00:06:57;16.20;92.20
78325;DHT22;67584;51.400;6.692;2023-07-31T00:09:23;16.20;92.20
78325;DHT22;67584;51.400;6.692;2023-07-31T00:11:48;16.10;92.20
78325;DHT22;67584;51.400;6.692;2023-07-31T00:14:14;16.10;92.20
78325;DHT22;67584;51.400;6.692;2023-07-31T00:16:39;16.10;92.20
78325;DHT22;67584;51.400;6.692;2023-07-31T00:19:05;16.10;92.20
78325;DHT22;67584;51.400;6.692;2023-07-31T00:21:31;16.20;92.20
78325;DHT22;67584;51.400;6.692;2023-07-31T00:23:56;16.20;92.20
78325;DHT22;67584;51.400;6.692;2023-07-31T00:26:22;16.20;92.20
78325;DHT22;67584;51.400;6.692;2023-07-31T00:28:47;16.20;92.20
78325;DHT22;67584;51.400;6.692;2023-07-31T00:31:13;16.20;92.20
78325;DHT22;67584;51.400;6.692;2023-07-31T00:33:39;16.10;92.20
78325;DHT22;67584;51.400;6.692;2023-07-31T00:36:05;16.10;92.20
78325;DHT22;67584;51.400;6.692;2023-07-31T00:38:30;16.20;92.20
78325;DHT22;67584;51.400;6.692;2023-07-31T00:40:56;16.20;92.10
78325;DHT22;67584;51.400;6.692;2023-07-31T00:43:21;16.20;92.00
78325;DHT22;67584;51.400;6.692;2023-07-31T00:45:48;16.20;92.10
78325;DHT22;67584;51.400;6.692;2023-07-31T00:48:13;16.20;92.10
78325;DHT22;67584;51.400;6.692;2023-07-31T00:50:39;16.20;92.10
78325;DHT22;67584;51.400;6.692;2023-07-31T00:53:05;16.20;91.90
78325;DHT22;67584;51.400;6.692;2023-07-31T00:55:33;16.20;92.00
78325;DHT22;67584;51.400;6.692;2023-07-31T00:57:59;16.20;92.10
78325;DHT22;67584;51.400;6.692;2023-07-31T01:00:25;16.20;91.90
78325;DHT22;67584;51.400;6.692;2023-07-31T01:02:51;16.20;91.90
78325;DHT22;67584;51.400;6.692;2023-07-31T01:05:25;16.20;92.00
78325;DHT22;67584;51.400;6.692;2023-07-31T01:08:09;16.30;91.90
78325;DHT22;67584;51.400;6.692;2023-07-31T01:10:49;16.20;91.90
78325;DHT22;67584;51.400;6.692;2023-07-31T01:13:17;16.20;92.00
78325;DHT22;67584;51.400;6.692;2023-07-31T01:15:43;16.20;91.70
78325;DHT22;67584;51.400;6.692;2023-07-31T01:18:09;16.20;91.90
78325;DHT22;67584;51.400;6.692;2023-07-31T01:20:37;16.10;91.80
78325;DHT22;67584;51.400;6.692;2023-07-31T01:28:55;16.30;91.10
78325;DHT22;67584;51.400;6.692;2023-07-31T01:31:24;16.20;91.40
78325;DHT22;67584;51.400;6.692;2023-07-31T01:33:53;16.20;91.30
78325;DHT22;67584;51.400;6.692;2023-07-31T01:36:20;16.20;91.60
78325;DHT22;67584;51.400;6.692;2023-07-31T01:38:46;16.20;90.80
78325;DHT22;67584;51.400;6.692;2023-07-31T01:41:12;16.20;90.90
78325;DHT22;67584;51.400;6.692;2023-07-31T01:43:37;16.20;90.60
78325;DHT22;67584;51.400;6.692;2023-07-31T01:46:04;16.10;90.60
78325;DHT22;67584;51.400;6.692;2023-07-31T01:48:30;16.20;90.00
78325;DHT22;67584;51.400;6.692;2023-07-31T01:51:01;16.30;90.20
78325;DHT22;67584;51.400;6.692;2023-07-31T01:53:27;16.30;90.20
78325;DHT22;67584;51.400;6.692;2023-07-31T01:55:53;16.30;89.60
78325;DHT22;67584;51.400;6.692;2023-07-31T01:58:18;16.30;89.60
78325;DHT22;67584;51.400;6.692;2023-07-31T02:00:44;16.20;89.90
78325;DHT22;67584;51.400;6.692;2023-07-31T02:03:10;16.30;89.70
78325;DHT22;67584;51.400;6.692;2023-07-31T02:05:35;16.30;89.00
78325;DHT22;67584;51.400;6.692;2023-07-31T02:08:01;16.30;89.10
78325;DHT22;67584;51.400;6.692;2023-07-31T02:10:27;16.30;89.50
78325;DHT22;67584;51.400;6.692;2023-07-31T02:12:52;16.30;89.10
78325;DHT22;67584;51.400;6.692;2023-07-31T02:15:18;16.30;89.20
78325;DHT22;67584;51.400;6.692;2023-07-31T02:17:44;16.30;89.00
78325;DHT22;67584;51.400;6.692;2023-07-31T02:20:10;16.40;88.40
78325;DHT22;67584;51.400;6.692;2023-07-31T02:22:35;16.40;88.30
78325;DHT22;67584;51.400;6.692;2023-07-31T02:25:02;16.40;87.70
78325;DHT22;67584;51.400;6.692;2023-07-31T02:27:27;16.40;88.00
78325;DHT22;67584;51.400;6.692;2023-07-31T02:29:53;16.40;87.80
78325;DHT22;67584;51.400;6.692;2023-07-31T02:32:20;16.40;87.70
78325;DHT22;67584;51.400;6.692;2023-07-31T02:34:45;16.40;88.10
78325;DHT22;67584;51.400;6.692;2023-07-31T02:37:11;16.40;87.70
78325;DHT22;67584;51.400;6.692;2023-07-31T02:39:37;16.40;87.60
78325;DHT22;67584;51.400;6.692;2023-07-31T02:42:02;16.40;87.80
78325;DHT22;67584;51.400;6.692;2023-07-31T02:44:28;16.40;87.70
78325;DHT22;67584;51.400;6.692;2023-07-31T02:46:54;16.50;87.40
78325;DHT22;67584;51.400;6.692;2023-07-31T02:49:19;16.50;87.30
78325;DHT22;67584;51.400;6.692;2023-07-31T02:51:46;16.50;87.60
78325;DHT22;67584;51.400;6.692;2023-07-31T02:54:11;16.50;87.30
78325;DHT22;67584;51.400;6.692;2023-07-31T02:56:37;16.50;87.10
78325;DHT22;67584;51.400;6.692;2023-07-31T02:59:02;16.50;87.20
78325;DHT22;67584;51.400;6.692;2023-07-31T03:01:28;16.60;87.50
78325;DHT22;67584;51.400;6.692;2023-07-31T03:03:54;16.60;87.10
78325;DHT22;67584;51.400;6.692;2023-07-31T03:06:19;16.60;87.40
78325;DHT22;67584;51.400;6.692;2023-07-31T03:08:45;16.70;87.30
78325;DHT22;67584;51.400;6.692;2023-07-31T03:11:11;16.70;87.10
78325;DHT22;67584;51.400;6.692;2023-07-31T03:13:36;16.70;87.40
78325;DHT22;67584;51.400;6.692;2023-07-31T03:16:02;16.70;86.90
78325;DHT22;67584;51.400;6.692;2023-07-31T03:18:28;16.70;87.30
78325;DHT22;67584;51.400;6.692;2023-07-31T03:20:53;16.70;87.10
78325;DHT22;67584;51.400;6.692;2023-07-31T03:23:19;16.70;87.40
78325;DHT22;67584;51.400;6.692;2023-07-31T03:25:58;16.80;87.20
78325;DHT22;67584;51.400;6.692;2023-07-31T03:28:27;16.80;86.80
78325;DHT22;67584;51.400;6.692;2023-07-31T03:30:53;16.90;86.90
78325;DHT22;67584;51.400;6.692;2023-07-31T03:33:19;16.80;87.00
78325;DHT22;67584;51.400;6.692;2023-07-31T03:35:45;16.90;86.70
78325;DHT22;67584;51.400;6.692;2023-07-31T03:38:11;16.90;86.30
78325;DHT22;67584;51.400;6.692;2023-07-31T03:40:36;17.00;85.70
78325;DHT22;67584;51.400;6.692;2023-07-31T03:43:02;17.00;85.70
78325;DHT22;67584;51.400;6.692;2023-07-31T03:45:28;17.00;86.00
78325;DHT22;67584;51.400;6.692;2023-07-31T03:47:53;17.10;85.60
78325;DHT22;67584;51.400;6.692;2023-07-31T03:50:20;17.10;85.60
78325;DHT22;67584;51.400;6.692;2023-07-31T03:52:46;17.10;85.90
78325;DHT22;67584;51.400;6.692;2023-07-31T03:55:12;17.10;85.70
78325;DHT22;67584;51.400;6.692;2023-07-31T03:57:38;17.10;86.00
78325;DHT22;67584;51.400;6.692;2023-07-31T04:00:04;17.10;85.90
78325;DHT22;67584;51.400;6.692;2023-07-31T04:02:37;17.20;85.90
78325;DHT22;67584;51.400;6.692;2023-07-31T04:05:03;17.10;85.90
78325;DHT22;67584;51.400;6.692;2023-07-31T04:07:29;17.30;85.70
78325;DHT22;67584;51.400;6.692;2023-07-31T04:09:55;17.30;85.50
78325;DHT22;67584;51.400;6.692;2023-07-31T04:12:20;17.20;85.70
78325;DHT22;67584;51.400;6.692;2023-07-31T04:14:46;17.20;86.20
78325;DHT22;67584;51.400;6.692;2023-07-31T04:17:11;17.10;85.90
78325;DHT22;67584;51.400;6.692;2023-07-31T04:19:37;17.20;85.90
78325;DHT22;67584;51.400;6.692;2023-07-31T04:22:03;17.20;85.80
78325;DHT22;67584;51.400;6.692;2023-07-31T04:24:29;17.20;85.70
78325;DHT22;67584;51.400;6.692;2023-07-31T04:26:55;17.30;85.70
78325;DHT22;67584;51.400;6.692;2023-07-31T04:29:20;17.40;85.50
78325;DHT22;67584;51.400;6.692;2023-07-31T04:31:48;17.30;85.20
78325;DHT22;67584;51.400;6.692;2023-07-31T04:34:14;17.40;85.10
78325;DHT22;67584;51.400;6.692;2023-07-31T04:36:39;17.50;85.00
78325;DHT22;67584;51.400;6.692;2023-07-31T04:39:05;17.50;85.00
78325;DHT22;67584;51.400;6.692;2023-07-31T04:41:31;17.50;84.60
78325;DHT22;67584;51.400;6.692;2023-07-31T04:43:57;17.50;85.00
78325;DHT22;67584;51.400;6.692;2023-07-31T04:46:22;17.50;84.90
78325;DHT22;67584;51.400;6.692;2023-07-31T04:48:48;17.60;84.90
78325;DHT22;67584;51.400;6.692;2023-07-31T04:51:13;17.60;84.90
78325;DHT22;67584;51.400;6.692;2023-07-31T04:53:39;17.60;84.90
78325;DHT22;67584;51.400;6.692;2023-07-31T04:56:05;17.60;84.80
78325;DHT22;67584;51.400;6.692;2023-07-31T04:58:31;17.70;85.10
78325;DHT22;67584;51.400;6.692;2023-07-31T05:00:56;17.60;85.30
78325;DHT22;67584;51.400;6.692;2023-07-31T05:03:22;17.60;85.60
78325;DHT22;67584;51.400;6.692;2023-07-31T05:05:47;17.60;85.30
78325;DHT22;67584;51.400;6.692;2023-07-31T05:08:13;17.50;85.80
78325;DHT22;67584;51.400;6.692;2023-07-31T05:10:39;17.40;85.80
78325;DHT22;67584;51.400;6.692;2023-07-31T05:13:05;17.50;85.80
78325;DHT22;67584;51.400;6.692;2023-07-31T05:15:31;17.60;85.80
78325;DHT22;67584;51.400;6.692;2023-07-31T05:17:56;17.60;86.00
78325;DHT22;67584;51.400;6.692;2023-07-31T05:20:22;17.60;86.00
78325;DHT22;67584;51.400;6.692;2023-07-31T05:22:48;17.40;86.00
78325;DHT22;67584;51.400;6.692;2023-07-31T05:25:13;17.40;86.10
78325;DHT22;67584;51.400;6.692;2023-07-31T05:27:39;17.40;86.10
78325;DHT22;67584;51.400;6.692;2023-07-31T05:30:05;17.60;85.90
78325;DHT22;67584;51.400;6.692;2023-07-31T05:32:31;17.50;85.80
78325;DHT22;67584;51.400;6.692;2023-07-31T05:34:57;17.70;85.70
78325;DHT22;67584;51.400;6.692;2023-07-31T05:37:23;17.60;85.70
78325;DHT22;67584;51.400;6.692;2023-07-31T05:39:48;17.60;85.50
78325;DHT22;67584;51.400;6.692;2023-07-31T05:42:14;17.80;85.20
78325;DHT22;67584;51.400;6.692;2023-07-31T05:44:40;17.80;85.20
78325;DHT22;67584;51.400;6.692;2023-07-31T05:47:05;17.80;84.90
78325;DHT22;67584;51.400;6.692;2023-07-31T05:49:31;17.90;85.00
78325;DHT22;67584;51.400;6.692;2023-07-31T05:51:57;17.90;85.20
78325;DHT22;67584;51.400;6.692;2023-07-31T05:54:22;17.90;84.70
78325;DHT22;67584;51.400;6.692;2023-07-31T05:56:48;18.00;84.40
78325;DHT22;67584;51.400;6.692;2023-07-31T05:59:14;18.10;84.20
78325;DHT22;67584;51.400;6.692;2023-07-31T06:01:39;18.10;83.90
78325;DHT22;67584;51.400;6.692;2023-07-31T06:04:05;18.00;84.70
78325;DHT22;67584;51.400;6.692;2023-07-31T06:06:31;17.90;84.50
78325;DHT22;67584;51.400;6.692;2023-07-31T06:08:56;17.90;84.60
78325;DHT22;67584;51.400;6.692;2023-07-31T06:11:22;17.80;84.90
78325;DHT22;67584;51.400;6.692;2023-07-31T06:13:48;17.80;85.80
78325;DHT22;67584;51.400;6.692;2023-07-31T06:16:15;17.60;86.20
78325;DHT22;67584;51.400;6.692;2023-07-31T06:18:41;17.30;87.00
78325;DHT22;67584;51.400;6.692;2023-07-31T06:21:07;17.20;88.20
78325;DHT22;67584;51.400;6.692;2023-07-31T06:23:33;17.00;88.70
78325;DHT22;67584;51.400;6.692;2023-07-31T06:25:59;17.00;89.30
78325;DHT22;67584;51.400;6.692;2023-07-31T06:28:28;17.10;89.40
78325;DHT22;67584;51.400;6.692;2023-07-31T06:30:55;17.10;89.10
78325;DHT22;67584;51.400;6.692;2023-07-31T06:33:20;17.00;89.50
78325;DHT22;67584;51.400;6.692;2023-07-31T06:35:46;17.00;89.50
78325;DHT22;67584;51.400;6.692;2023-07-31T06:38:12;17.00;89.30
78325;DHT22;67584;51.400;6.692;2023-07-31T06:40:37;17.10;89.30
78325;DHT22;67584;51.400;6.692;2023-07-31T06:43:03;17.10;89.80
78325;DHT22;67584;51.400;6.692;2023-07-31T06:45:36;17.00;89.40
78325;DHT22;67584;51.400;6.692;2023-07-31T06:48:02;17.20;89.70
78325;DHT22;67584;51.400;6.692;2023-07-31T06:50:29;17.20;89.30
78325;DHT22;67584;51.400;6.692;2023-07-31T06:52:55;17.30;89.10
78325;DHT22;67584;51.400;6.692;2023-07-31T06:55:21;17.30;89.20
78325;DHT22;67584;51.400;6.692;2023-07-31T06:57:48;17.30;89.70
78325;DHT22;67584;51.400;6.692;2023-07-31T07:00:15;17.20;90.10
78325;DHT22;67584;51.400;6.692;2023-07-31T07:02:41;17.00;90.50
78325;DHT22;67584;51.400;6.692;2023-07-31T07:05:07;16.90;91.20
78325;DHT22;67584;51.400;6.692;2023-07-31T07:07:33;16.80;91.80
78325;DHT22;67584;51.400;6.692;2023-07-31T07:09:59;16.70;91.90
78325;DHT22;67584;51.400;6.692;2023-07-31T07:12:25;16.70;92.00
78325;DHT22;67584;51.400;6.692;2023-07-31T07:14:51;16.70;92.10
78325;DHT22;67584;51.400;6.692;2023-07-31T07:17:18;16.80;92.10
78325;DHT22;67584;51.400;6.692;2023-07-31T07:19:44;16.60;92.10
78325;DHT22;67584;51.400;6.692;2023-07-31T07:22:11;16.60;92.10
78325;DHT22;67584;51.400;6.692;2023-07-31T07:24:37;16.60;92.10
78325;DHT22;67584;51.400;6.692;2023-07-31T07:27:03;16.60;92.10
78325;DHT22;67584;51.400;6.692;2023-07-31T07:29:29;16.60;92.10
78325;DHT22;67584;51.400;6.692;2023-07-31T07:31:55;16.70;92.20
78325;DHT22;67584;51.400;6.692;2023-07-31T07:34:24;16.70;92.00
78325;DHT22;67584;51.400;6.692;2023-07-31T07:36:49;16.60;92.10
78325;DHT22;67584;51.400;6.692;2023-07-31T07:39:15;16.70;92.20
78325;DHT22;67584;51.400;6.692;2023-07-31T07:41:41;16.70;92.20
78325;DHT22;67584;51.400;6.692;2023-07-31T07:44:08;16.60;92.20
78325;DHT22;67584;51.400;6.692;2023-07-31T07:46:34;16.60;92.00
78325;DHT22;67584;51.400;6.692;2023-07-31T07:48:59;16.60;92.20
78325;DHT22;67584;51.400;6.692;2023-07-31T07:51:25;16.50;92.20
78325;DHT22;67584;51.400;6.692;2023-07-31T07:53:51;16.50;92.20
78325;DHT22;67584;51.400;6.692;2023-07-31T07:56:16;16.60;92.20
78325;DHT22;67584;51.400;6.692;2023-07-31T07:58:42;16.60;92.20
78325;DHT22;67584;51.400;6.692;2023-07-31T08:01:08;16.50;92.20
78325;DHT22;67584;51.400;6.692;2023-07-31T08:03:33;16.70;92.20
78325;DHT22;67584;51.400;6.692;2023-07-31T08:06:00;16.70;92.20
78325;DHT22;67584;51.400;6.692;2023-07-31T08:08:26;16.60;92.10
78325;DHT22;67584;51.400;6.692;2023-07-31T08:10:52;16.60;92.10
78325;DHT22;67584;51.400;6.692;2023-07-31T08:13:17;16.50;92.20
78325;DHT22;67584;51.400;6.692;2023-07-31T08:15:43;16.50;92.20
78325;DHT22;67584;51.400;6.692;2023-07-31T08:18:10;16.50;92.20
78325;DHT22;67584;51.400;6.692;2023-07-31T08:20:37;16.40;92.00
78325;DHT22;67584;51.400;6.692;2023-07-31T08:23:03;16.40;92.20
78325;DHT22;67584;51.400;6.692;2023-07-31T08:25:28;16.40;92.20
78325;DHT22;67584;51.400;6.692;2023-07-31T08:27:54;16.40;92.10
78325;DHT22;67584;51.400;6.692;2023-07-31T08:30:19;16.30;92.20
78325;DHT22;67584;51.400;6.692;2023-07-31T08:32:45;16.30;92.20
78325;DHT22;67584;51.400;6.692;2023-07-31T08:35:11;16.30;92.20
78325;DHT22;67584;51.400;6.692;2023-07-31T08:37:37;16.40;92.20
78325;DHT22;67584;51.400;6.692;2023-07-31T08:40:04;16.40;92.20
78325;DHT22;67584;51.400;6.692;2023-07-31T08:42:30;16.40;92.20
78325;DHT22;67584;51.400;6.692;2023-07-31T08:44:56;16.50;92.10
78325;DHT22;67584;51.400;6.692;2023-07-31T08:47:23;16.60;92.10
78325;DHT22;67584;51.400;6.692;2023-07-31T08:49:50;16.60;92.00
78325;DHT22;67584;51.400;6.692;2023-07-31T08:52:16;16.50;91.80
78325;DHT22;67584;51.400;6.692;2023-07-31T08:54:42;16.60;91.90
78325;DHT22;67584;51.400;6.692;2023-07-31T08:57:09;16.60;91.70
78325;DHT22;67584;51.400;6.692;2023-07-31T08:59:35;16.70;91.80
78325;DHT22;67584;51.400;6.692;2023-07-31T09:02:08;16.60;91.70
78325;DHT22;67584;51.400;6.692;2023-07-31T09:04:34;16.60;91.90
78325;DHT22;67584;51.400;6.692;2023-07-31T09:07:01;16.70;91.60
78325;DHT22;67584;51.400;6.692;2023-07-31T09:09:30;16.60;92.00
78325;DHT22;67584;51.400;6.692;2023-07-31T09:11:57;16.80;92.00
78325;DHT22;67584;51.400;6.692;2023-07-31T09:14:25;16.70;91.90
78325;DHT22;67584;51.400;6.692;2023-07-31T09:16:58;16.70;92.00
78325;DHT22;67584;51.400;6.692;2023-07-31T09:19:33;16.80;92.10
78325;DHT22;67584;51.400;6.692;2023-07-31T09:22:00;16.90;92.10
78325;DHT22;67584;51.400;6.692;2023-07-31T09:24:30;16.80;92.00
78325;DHT22;67584;51.400;6.692;2023-07-31T09:26:57;16.90;92.20
78325;DHT22;67584;51.400;6.692;2023-07-31T09:29:25;16.80;92.00
78325;DHT22;67584;51.400;6.692;2023-07-31T09:31:53;16.80;92.10
78325;DHT22;67584;51.400;6.692;2023-07-31T09:34:19;16.80;92.20
78325;DHT22;67584;51.400;6.692;2023-07-31T09:36:49;16.70;92.00
78325;DHT22;67584;51.400;6.692;2023-07-31T09:39:16;16.80;92.10
78325;DHT22;67584;51.400;6.692;2023-07-31T09:41:44;16.70;92.20
78325;DHT22;67584;51.400;6.692;2023-07-31T09:44:11;16.80;92.20
78325;DHT22;67584;51.400;6.692;2023-07-31T09:46:37;16.90;92.20
78325;DHT22;67584;51.400;6.692;2023-07-31T09:49:13;16.90;92.20
78325;DHT22;67584;51.400;6.692;2023-07-31T09:51:42;16.90;92.20
78325;DHT22;67584;51.400;6.692;2023-07-31T09:56:47;16.90;92.20
78325;DHT22;67584;51.400;6.692;2023-07-31T09:59:15;16.90;92.20
78325;DHT22;67584;51.400;6.692;2023-07-31T10:01:42;16.80;92.20
78325;DHT22;67584;51.400;6.692;2023-07-31T10:04:09;16.80;92.20
78325;DHT22;67584;51.400;6.692;2023-07-31T10:06:36;17.00;92.20
78325;DHT22;67584;51.400;6.692;2023-07-31T10:09:05;16.90;92.20
78325;DHT22;67584;51.400;6.692;2023-07-31T10:11:36;17.00;92.20
78325;DHT22;67584;51.400;6.692;2023-07-31T10:14:05;17.00;92.20
78325;DHT22;67584;51.400;6.692;2023-07-31T10:16:31;17.00;92.10
78325;DHT22;67584;51.400;6.692;2023-07-31T10:18:58;17.00;92.10
78325;DHT22;67584;51.400;6.692;2023-07-31T10:21:24;17.00;92.10
78325;DHT22;67584;51.400;6.692;2023-07-31T10:23:50;17.20;92.20
78325;DHT22;67584;51.400;6.692;2023-07-31T10:26:17;17.40;92.10
78325;DHT22;67584;51.400;6.692;2023-07-31T10:28:45;17.60;91.80
78325;DHT22;67584;51.400;6.692;2023-07-31T10:31:11;17.50;90.90
78325;DHT22;67584;51.400;6.692;2023-07-31T10:33:37;17.60;91.00
78325;DHT22;67584;51.400;6.692;2023-07-31T10:38:40;18.00;90.00
78325;DHT22;67584;51.400;6.692;2023-07-31T10:41:09;18.00;89.90
78325;DHT22;67584;51.400;6.692;2023-07-31T10:43:37;17.90;89.30
78325;DHT22;67584;51.400;6.692;2023-07-31T10:46:13;18.10;89.60
78325;DHT22;67584;51.400;6.692;2023-07-31T10:48:41;18.10;88.60
78325;DHT22;67584;51.400;6.692;2023-07-31T10:51:11;18.10;89.60
78325;DHT22;67584;51.400;6.692;2023-07-31T10:53:41;18.20;89.20
78325;DHT22;67584;51.400;6.692;2023-07-31T10:56:10;18.20;89.00
78325;DHT22;67584;51.400;6.692;2023-07-31T10:58:44;18.10;87.90
78325;DHT22;67584;51.400;6.692;2023-07-31T11:01:11;18.20;88.50
78325;DHT22;67584;51.400;6.692;2023-07-31T11:03:48;18.10;87.80
78325;DHT22;67584;51.400;6.692;2023-07-31T11:06:15;18.30;88.10
78325;DHT22;67584;51.400;6.692;2023-07-31T11:08:46;18.40;87.80
78325;DHT22;67584;51.400;6.692;2023-07-31T11:11:17;18.60;88.00
78325;DHT22;67584;51.400;6.692;2023-07-31T11:16:11;18.80;87.10
78325;DHT22;67584;51.400;6.692;2023-07-31T11:18:42;18.90;85.50
78325;DHT22;67584;51.400;6.692;2023-07-31T11:21:12;19.10;85.90
78325;DHT22;67584;51.400;6.692;2023-07-31T11:23:38;19.10;85.60
78325;DHT22;67584;51.400;6.692;2023-07-31T11:26:05;18.90;85.70
78325;DHT22;67584;51.400;6.692;2023-07-31T11:28:33;18.70;86.30
78325;DHT22;67584;51.400;6.692;2023-07-31T11:30:59;18.60;86.90
78325;DHT22;67584;51.400;6.692;2023-07-31T11:33:26;18.50;87.40
78325;DHT22;67584;51.400;6.692;2023-07-31T11:35:52;18.40;87.30
78325;DHT22;67584;51.400;6.692;2023-07-31T11:40:49;18.30;88.50
78325;DHT22;67584;51.400;6.692;2023-07-31T11:43:15;18.20;89.30
78325;DHT22;67584;51.400;6.692;2023-07-31T11:45:47;18.10;89.50
78325;DHT22;67584;51.400;6.692;2023-07-31T11:48:27;17.90;90.10
78325;DHT22;67584;51.400;6.692;2023-07-31T11:51:01;17.90;90.30
78325;DHT22;67584;51.400;6.692;2023-07-31T11:53:32;17.80;90.80
78325;DHT22;67584;51.400;6.692;2023-07-31T11:56:01;17.90;90.40
78325;DHT22;67584;51.400;6.692;2023-07-31T11:58:29;17.80;90.20
78325;DHT22;67584;51.400;6.692;2023-07-31T12:00:55;17.80;90.00
78325;DHT22;67584;51.400;6.692;2023-07-31T12:03:21;17.70;90.50
78325;DHT22;67584;51.400;6.692;2023-07-31T12:05:48;17.90;90.20
78325;DHT22;67584;51.400;6.692;2023-07-31T12:08:13;17.90;90.00
78325;DHT22;67584;51.400;6.692;2023-07-31T12:10:39;17.90;90.00
78325;DHT22;67584;51.400;6.692;2023-07-31T12:13:23;18.10;89.00
78325;DHT22;67584;51.400;6.692;2023-07-31T12:15:54;18.30;88.80
78325;DHT22;67584;51.400;6.692;2023-07-31T12:18:20;18.50;88.20
78325;DHT22;67584;51.400;6.692;2023-07-31T12:20:48;18.50;87.80
78325;DHT22;67584;51.400;6.692;2023-07-31T12:23:21;18.60;87.50
78325;DHT22;67584;51.400;6.692;2023-07-31T12:26:08;18.90;86.80
78325;DHT22;67584;51.400;6.692;2023-07-31T12:28:48;19.00;85.70
78325;DHT22;67584;51.400;6.692;2023-07-31T12:31:18;19.00;85.90
78325;DHT22;67584;51.400;6.692;2023-07-31T12:33:45;18.90;85.30
78325;DHT22;67584;51.400;6.692;2023-07-31T12:36:17;18.80;85.30
78325;DHT22;67584;51.400;6.692;2023-07-31T12:38:44;18.90;85.90
78325;DHT22;67584;51.400;6.692;2023-07-31T12:41:10;18.70;85.70
78325;DHT22;67584;51.400;6.692;2023-07-31T12:43:37;18.80;85.90
78325;DHT22;67584;51.400;6.692;2023-07-31T12:46:03;18.70;86.10
78325;DHT22;67584;51.400;6.692;2023-07-31T12:48:30;18.70;86.50
78325;DHT22;67584;51.400;6.692;2023-07-31T12:50:55;18.80;86.10
78325;DHT22;67584;51.400;6.692;2023-07-31T12:53:21;18.80;85.70
78325;DHT22;67584;51.400;6.692;2023-07-31T12:55:47;18.90;85.50
78325;DHT22;67584;51.400;6.692;2023-07-31T12:58:12;19.00;84.80
78325;DHT22;67584;51.400;6.692;2023-07-31T13:00:38;19.20;84.70
78325;DHT22;67584;51.400;6.692;2023-07-31T13:03:04;19.50;84.20
78325;DHT22;67584;51.400;6.692;2023-07-31T13:05:29;19.60;83.30
78325;DHT22;67584;51.400;6.692;2023-07-31T13:07:55;19.80;83.10
78325;DHT22;67584;51.400;6.692;2023-07-31T13:10:22;19.90;82.80
78325;DHT22;67584;51.400;6.692;2023-07-31T13:12:48;19.60;82.70
78325;DHT22;67584;51.400;6.692;2023-07-31T13:15:14;19.80;82.80
78325;DHT22;67584;51.400;6.692;2023-07-31T13:17:40;19.80;82.60
78325;DHT22;67584;51.400;6.692;2023-07-31T13:20:06;19.90;82.00
78325;DHT22;67584;51.400;6.692;2023-07-31T13:22:32;19.70;82.40
78325;DHT22;67584;51.400;6.692;2023-07-31T13:24:58;19.60;82.60
78325;DHT22;67584;51.400;6.692;2023-07-31T13:27:23;19.80;82.90
78325;DHT22;67584;51.400;6.692;2023-07-31T13:29:53;19.80;82.50
78325;DHT22;67584;51.400;6.692;2023-07-31T13:32:19;19.70;83.10
78325;DHT22;67584;51.400;6.692;2023-07-31T13:34:46;19.60;82.50
78325;DHT22;67584;51.400;6.692;2023-07-31T13:37:12;19.60;83.20
78325;DHT22;67584;51.400;6.692;2023-07-31T13:39:38;19.80;82.80
78325;DHT22;67584;51.400;6.692;2023-07-31T13:42:05;20.00;82.70
78325;DHT22;67584;51.400;6.692;2023-07-31T13:44:34;19.90;82.60
78325;DHT22;67584;51.400;6.692;2023-07-31T13:47:00;19.90;82.60
78325;DHT22;67584;51.400;6.692;2023-07-31T13:49:27;19.90;81.60
78325;DHT22;67584;51.400;6.692;2023-07-31T13:51:52;20.00;82.00
78325;DHT22;67584;51.400;6.692;2023-07-31T13:54:18;20.10;81.50
78325;DHT22;67584;51.400;6.692;2023-07-31T13:56:44;20.20;81.00
78325;DHT22;67584;51.400;6.692;2023-07-31T13:59:10;20.20;81.50
78325;DHT22;67584;51.400;6.692;2023-07-31T14:01:36;20.50;80.90
78325;DHT22;67584;51.400;6.692;2023-07-31T14:04:02;20.40;80.80
78325;DHT22;67584;51.400;6.692;2023-07-31T14:06:27;20.40;80.50
78325;DHT22;67584;51.400;6.692;2023-07-31T14:08:53;20.30;80.00
78325;DHT22;67584;51.400;6.692;2023-07-31T14:11:19;20.20;80.40
78325;DHT22;67584;51.400;6.692;2023-07-31T14:13:44;20.10;80.70
78325;DHT22;67584;51.400;6.692;2023-07-31T14:16:10;20.00;80.60
78325;DHT22;67584;51.400;6.692;2023-07-31T14:18:35;19.90;80.30
78325;DHT22;67584;51.400;6.692;2023-07-31T14:21:01;20.00;80.90
78325;DHT22;67584;51.400;6.692;2023-07-31T14:23:27;19.90;81.00
78325;DHT22;67584;51.400;6.692;2023-07-31T14:25:52;19.80;81.30
78325;DHT22;67584;51.400;6.692;2023-07-31T14:28:18;19.70;81.90
78325;DHT22;67584;51.400;6.692;2023-07-31T14:30:44;19.70;81.90
78325;DHT22;67584;51.400;6.692;2023-07-31T14:33:09;19.70;81.80
78325;DHT22;67584;51.400;6.692;2023-07-31T14:35:35;19.70;81.90
78325;DHT22;67584;51.400;6.692;2023-07-31T14:38:01;19.70;81.90
78325;DHT22;67584;51.400;6.692;2023-07-31T14:40:26;19.60;82.10
78325;DHT22;67584;51.400;6.692;2023-07-31T14:42:53;19.50;82.90
78325;DHT22;67584;51.400;6.692;2023-07-31T14:45:18;19.30;83.50
78325;DHT22;67584;51.400;6.692;2023-07-31T14:47:44;19.20;84.20
78325;DHT22;67584;51.400;6.692;2023-07-31T14:50:10;19.30;83.90
78325;DHT22;67584;51.400;6.692;2023-07-31T14:52:36;19.30;83.70
78325;DHT22;67584;51.400;6.692;2023-07-31T14:55:01;19.30;83.40
78325;DHT22;67584;51.400;6.692;2023-07-31T14:57:27;19.50;82.90
78325;DHT22;67584;51.400;6.692;2023-07-31T14:59:53;19.40;82.20
78325;DHT22;67584;51.400;6.692;2023-07-31T15:02:18;19.60;81.40
78325;DHT22;67584;51.400;6.692;2023-07-31T15:04:44;19.60;80.60
78325;DHT22;67584;51.400;6.692;2023-07-31T15:07:09;19.60;80.50
78325;DHT22;67584;51.400;6.692;2023-07-31T15:09:35;19.60;80.80
78325;DHT22;67584;51.400;6.692;2023-07-31T15:12:01;19.70;80.50
78325;DHT22;67584;51.400;6.692;2023-07-31T15:14:27;19.70;80.60
78325;DHT22;67584;51.400;6.692;2023-07-31T15:16:56;19.80;80.00
78325;DHT22;67584;51.400;6.692;2023-07-31T15:19:22;19.80;79.70
78325;DHT22;67584;51.400;6.692;2023-07-31T15:21:49;19.80;79.30
78325;DHT22;67584;51.400;6.692;2023-07-31T15:24:14;19.90;79.20
78325;DHT22;67584;51.400;6.692;2023-07-31T15:26:40;19.90;79.00
78325;DHT22;67584;51.400;6.692;2023-07-31T15:29:07;19.90;79.20
78325;DHT22;67584;51.400;6.692;2023-07-31T15:31:45;20.00;78.50
78325;DHT22;67584;51.400;6.692;2023-07-31T15:34:13;20.00;79.10
78325;DHT22;67584;51.400;6.692;2023-07-31T15:36:39;20.10;78.20
78325;DHT22;67584;51.400;6.692;2023-07-31T15:39:04;20.00;78.50
78325;DHT22;67584;51.400;6.692;2023-07-31T15:41:30;20.00;79.00
78325;DHT22;67584;51.400;6.692;2023-07-31T15:43:56;19.90;79.60